createdAt,value
2019-03-23T00:02:20.510Z,36.00
2019-03-23T00:04:49.032Z,35.30
2019-03-23T00:07:18.394Z,37.13
2019-03-23T00:09:46.889Z,35.50
2019-03-23T00:12:15.418Z,38.07
2019-03-23T00:14:43.848Z,37.20
2019-03-23T00:17:12.306Z,36.90
2019-03-23T00:19:40.819Z,37.40
2019-03-23T00:22:09.353Z,38.70
2019-03-23T00:24:37.822Z,38.37
2019-03-23T00:27:06.328Z,35.20
2019-03-23T00:29:34.802Z,38.97
2019-03-23T00:32:03.270Z,39.30
2019-03-23T00:34:31.776Z,36.97
2019-03-23T00:37:00.312Z,39.80
2019-03-23T00:39:28.784Z,40.20
2019-03-23T00:41:57.286Z,38.40
2019-03-23T00:44:25.760Z,38.07
2019-03-23T00:46:54.232Z,41.47
2019-03-23T00:49:22.768Z,41.17
2019-03-23T00:51:51.204Z,41.40
2019-03-23T00:54:19.679Z,41.47
2019-03-23T00:56:48.193Z,37.90
2019-03-23T00:59:16.666Z,40.07
2019-03-23T01:01:45.122Z,38.40
2019-03-23T01:04:13.628Z,42.33
2019-03-23T01:06:51.815Z,41.90
2019-03-23T01:09:12.475Z,45.77
2019-03-23T01:11:40.975Z,40.77
2019-03-23T01:14:09.445Z,47.37
2019-03-23T01:16:37.915Z,45.50
2019-03-23T01:19:06.416Z,43.60
2019-03-23T01:21:34.887Z,48.57
2019-03-23T01:24:03.358Z,48.33
2019-03-23T01:26:31.931Z,50.37
2019-03-23T01:29:00.403Z,47.80
2019-03-23T01:31:29.028Z,52.43
2019-03-23T01:33:57.534Z,51.23
2019-03-23T01:36:25.988Z,47.90
2019-03-23T01:38:54.461Z,50.77
2019-03-23T01:41:23.033Z,54.43
2019-03-23T01:43:51.496Z,54.87
2019-03-23T01:46:19.963Z,57.83
2019-03-23T01:48:48.467Z,56.67
2019-03-23T01:51:16.951Z,56.60
2019-03-23T01:53:45.561Z,51.27
2019-03-23T01:56:14.064Z,52.90
2019-03-23T01:58:42.545Z,54.27
2019-03-23T02:01:11.015Z,56.87
2019-03-23T02:03:39.493Z,56.90
2019-03-23T02:06:07.966Z,57.27
2019-03-23T02:08:36.437Z,52.77
2019-03-23T02:11:05.312Z,55.97
2019-03-23T02:13:33.781Z,59.63
2019-03-23T02:16:02.236Z,55.77
2019-03-23T02:18:30.747Z,56.87
2019-03-23T02:20:59.210Z,54.63
2019-03-23T02:23:27.676Z,57.30
2019-03-23T02:25:56.196Z,58.97
2019-03-23T02:28:24.649Z,54.60
2019-03-23T02:30:53.109Z,63.40
2019-03-23T02:33:21.800Z,54.13
2019-03-23T02:35:50.258Z,60.23
2019-03-23T02:38:18.747Z,56.17
2019-03-23T02:40:47.230Z,51.60
2019-03-23T02:43:15.686Z,54.63
2019-03-23T02:45:44.174Z,60.80
2019-03-23T02:48:12.754Z,60.00
2019-03-23T02:50:41.240Z,60.47
2019-03-23T02:53:09.705Z,57.17
2019-03-23T02:55:38.219Z,55.17
2019-03-23T02:58:06.688Z,59.03
2019-03-23T03:00:35.172Z,52.40
2019-03-23T03:03:03.679Z,59.90
2019-03-23T03:05:32.156Z,51.50
2019-03-23T03:08:00.688Z,58.97
2019-03-23T03:10:41.905Z,54.60
2019-03-23T03:13:10.749Z,54.70
2019-03-23T03:15:39.294Z,55.37
2019-03-23T03:18:08.078Z,54.10
2019-03-23T03:20:36.548Z,54.30
2019-03-23T03:23:05.012Z,55.23
2019-03-23T03:25:33.516Z,56.07
2019-03-23T03:28:02.000Z,56.07
2019-03-23T03:30:30.466Z,55.63
2019-03-23T03:32:58.959Z,55.20
2019-03-23T03:35:27.424Z,55.37
2019-03-23T03:37:57.261Z,55.00
2019-03-23T03:40:26.072Z,56.57
2019-03-23T03:42:54.542Z,51.80
2019-03-23T03:45:28.875Z,56.80
2019-03-23T03:47:57.497Z,55.40
2019-03-23T03:50:25.997Z,53.70
2019-03-23T03:52:54.445Z,50.93
2019-03-23T03:55:22.942Z,52.53
2019-03-23T03:57:51.403Z,59.67
2019-03-23T04:00:19.872Z,58.43
2019-03-23T04:02:48.370Z,62.40
2019-03-23T04:05:16.908Z,58.27
2019-03-23T04:07:45.733Z,56.43
2019-03-23T04:10:14.289Z,56.07
2019-03-23T04:12:42.746Z,58.13
2019-03-23T04:15:12.275Z,56.67
2019-03-23T04:17:40.772Z,60.07
2019-03-23T04:20:10.472Z,60.37
2019-03-23T04:22:38.942Z,58.87
2019-03-23T04:25:08.306Z,57.03
2019-03-23T04:27:36.744Z,47.13
2019-03-23T04:30:06.780Z,59.17
2019-03-23T04:32:35.267Z,55.40
2019-03-23T04:35:04.563Z,58.83
2019-03-23T04:37:33.027Z,59.90
2019-03-23T04:40:01.621Z,55.97
2019-03-23T04:42:30.068Z,62.00
2019-03-23T04:44:58.532Z,56.00
2019-03-23T04:47:27.028Z,55.60
2019-03-23T04:49:55.482Z,60.47
2019-03-23T04:52:23.958Z,51.97
2019-03-23T04:54:52.465Z,59.70
2019-03-23T04:57:20.951Z,57.07
2019-03-23T04:59:49.399Z,68.80
2019-03-23T05:02:17.914Z,57.67
2019-03-23T05:04:46.380Z,55.37
2019-03-23T05:07:14.828Z,62.43
2019-03-23T05:09:43.319Z,57.13
2019-03-23T05:12:11.777Z,54.10
2019-03-23T05:14:40.247Z,59.93
2019-03-23T05:17:09.800Z,56.00
2019-03-23T05:19:38.260Z,57.97
2019-03-23T05:22:06.740Z,57.47
2019-03-23T05:24:35.247Z,58.40
2019-03-23T05:27:03.706Z,64.40
2019-03-23T05:29:32.174Z,62.33
2019-03-23T05:32:00.675Z,56.23
2019-03-23T05:34:29.138Z,55.97
2019-03-23T05:36:57.608Z,63.90
2019-03-23T05:39:26.094Z,58.67
2019-03-23T05:41:54.558Z,56.93
2019-03-23T05:44:23.032Z,64.37
2019-03-23T05:46:51.531Z,62.80
2019-03-23T05:49:20.009Z,58.30
2019-03-23T05:51:48.473Z,57.20
2019-03-23T05:54:17.002Z,58.03
2019-03-23T05:56:45.483Z,56.60
2019-03-23T05:59:13.949Z,52.60
2019-03-23T06:01:42.438Z,55.23
2019-03-23T06:04:10.980Z,61.20
2019-03-23T06:06:39.465Z,58.03
2019-03-23T06:09:08.054Z,58.70
2019-03-23T06:11:36.519Z,63.47
2019-03-23T06:14:05.061Z,61.07
2019-03-23T06:16:33.596Z,59.63
2019-03-23T06:19:02.177Z,59.93
2019-03-23T06:21:30.649Z,61.40
2019-03-23T06:23:59.151Z,61.77
2019-03-23T06:26:27.616Z,57.20
2019-03-23T06:28:56.093Z,60.43
2019-03-23T06:31:24.598Z,60.37
2019-03-23T06:33:53.070Z,62.77
2019-03-23T06:36:21.533Z,62.67
2019-03-23T06:38:51.619Z,74.13
2019-03-23T06:41:20.081Z,59.93
2019-03-23T06:43:48.556Z,73.37
2019-03-23T06:46:17.304Z,61.90
2019-03-23T06:48:45.848Z,60.17
2019-03-23T06:51:14.288Z,58.73
2019-03-23T06:53:42.813Z,62.00
2019-03-23T06:56:11.287Z,63.90
2019-03-23T06:58:40.096Z,61.13
2019-03-23T07:01:08.591Z,57.37
2019-03-23T07:03:37.477Z,57.07
2019-03-23T07:06:06.016Z,57.10
2019-03-23T07:08:34.550Z,59.80
2019-03-23T07:11:03.021Z,61.33
2019-03-23T07:13:31.492Z,56.60
2019-03-23T07:15:59.997Z,60.47
2019-03-23T07:18:28.468Z,59.47
2019-03-23T07:20:57.942Z,54.87
2019-03-23T07:23:26.459Z,59.87
2019-03-23T07:25:54.941Z,61.50
2019-03-23T07:28:23.420Z,58.77
2019-03-23T07:30:51.944Z,58.07
2019-03-23T07:33:20.449Z,62.00
2019-03-23T07:35:49.166Z,62.27
2019-03-23T07:38:17.649Z,56.50
2019-03-23T07:40:46.130Z,60.73
2019-03-23T07:43:14.621Z,55.70
2019-03-23T07:45:43.136Z,51.87
2019-03-23T07:48:11.616Z,57.80
2019-03-23T07:50:40.090Z,52.20
2019-03-23T07:53:08.603Z,51.23
2019-03-23T07:55:37.080Z,54.27
2019-03-23T07:58:05.567Z,57.50
2019-03-23T08:00:34.060Z,50.90
2019-03-23T08:03:02.544Z,59.80
2019-03-23T08:05:31.095Z,58.53
2019-03-23T08:07:59.620Z,60.50
2019-03-23T08:10:29.733Z,55.70
2019-03-23T08:12:58.213Z,55.50
2019-03-23T08:15:26.802Z,58.20
2019-03-23T08:17:55.814Z,52.97
2019-03-23T08:20:25.154Z,53.97
2019-03-23T08:22:55.462Z,59.13
2019-03-23T08:25:23.938Z,54.07
2019-03-23T08:27:52.703Z,56.60
2019-03-23T08:30:21.261Z,52.37
2019-03-23T08:32:49.759Z,55.97
2019-03-23T08:35:18.301Z,54.83
2019-03-23T08:37:46.812Z,52.07
2019-03-23T08:40:15.299Z,58.60
2019-03-23T08:42:43.761Z,57.50
2019-03-23T08:45:12.348Z,60.00
2019-03-23T08:47:40.822Z,54.90
2019-03-23T08:50:09.365Z,56.47
2019-03-23T08:52:37.858Z,47.63
2019-03-23T08:55:07.094Z,52.30
2019-03-23T08:57:35.656Z,54.80
2019-03-23T09:00:05.799Z,50.40
2019-03-23T09:02:34.264Z,50.67
2019-03-23T09:05:02.735Z,57.70
2019-03-23T09:07:31.244Z,50.30
2019-03-23T09:10:01.014Z,47.33
2019-03-23T09:12:29.489Z,52.20
2019-03-23T09:14:57.992Z,49.20
2019-03-23T09:17:26.487Z,38.73
2019-03-23T09:19:54.916Z,53.77
2019-03-23T09:22:23.636Z,51.27
2019-03-23T09:24:56.989Z,50.37
2019-03-23T09:27:22.671Z,42.10
2019-03-23T09:29:51.160Z,51.80
2019-03-23T09:32:19.628Z,45.63
2019-03-23T09:34:48.125Z,49.00
2019-03-23T09:37:16.652Z,58.00
2019-03-23T09:39:46.861Z,47.63
2019-03-23T09:42:15.355Z,55.87
2019-03-23T09:44:43.858Z,53.07
2019-03-23T09:47:12.340Z,57.80
2019-03-23T09:49:40.825Z,51.17
2019-03-23T09:52:09.322Z,52.13
2019-03-23T09:54:37.803Z,45.23
2019-03-23T09:57:06.342Z,50.77
2019-03-23T09:59:34.839Z,50.33
2019-03-23T10:02:03.302Z,42.87
2019-03-23T10:04:31.810Z,50.17
2019-03-23T10:07:00.291Z,45.23
2019-03-23T10:09:28.758Z,52.27
2019-03-23T10:11:59.161Z,48.33
2019-03-23T10:14:27.490Z,45.37
2019-03-23T10:16:55.965Z,45.20
2019-03-23T10:19:24.503Z,53.07
2019-03-23T10:21:52.991Z,46.23
2019-03-23T10:24:21.468Z,50.27
2019-03-23T10:26:52.169Z,44.27
2019-03-23T10:29:20.474Z,47.10
2019-03-23T10:31:48.952Z,46.30
2019-03-23T10:34:17.460Z,36.83
2019-03-23T10:36:45.941Z,39.13
2019-03-23T10:39:14.417Z,44.63
2019-03-23T10:41:42.915Z,37.70
2019-03-23T10:44:11.380Z,38.93
2019-03-23T10:46:39.873Z,42.93
2019-03-23T10:49:08.394Z,46.30
2019-03-23T10:51:36.871Z,41.90
2019-03-23T10:54:05.340Z,40.67
2019-03-23T10:56:33.842Z,40.17
2019-03-23T10:59:02.350Z,37.30
2019-03-23T11:01:30.858Z,42.03
2019-03-23T11:03:59.358Z,42.53
2019-03-23T11:06:27.816Z,41.10
2019-03-23T11:08:56.288Z,42.03
2019-03-23T11:11:24.827Z,40.20
2019-03-23T11:13:53.314Z,38.10
2019-03-23T11:16:21.780Z,38.37
2019-03-23T11:18:50.349Z,38.30
2019-03-23T11:21:18.809Z,38.27
2019-03-23T11:23:47.280Z,38.50
2019-03-23T11:26:15.791Z,38.80
2019-03-23T11:28:44.403Z,37.43
2019-03-23T11:31:13.061Z,41.03
2019-03-23T11:33:41.548Z,37.33
2019-03-23T11:36:10.023Z,36.73
2019-03-23T11:38:38.483Z,36.00
2019-03-23T11:41:07.064Z,38.00
2019-03-23T11:43:35.525Z,35.10
2019-03-23T11:46:04.054Z,37.30
2019-03-23T11:48:32.567Z,32.73
2019-03-23T11:51:01.033Z,28.67
2019-03-23T11:53:29.498Z,35.27
2019-03-23T11:55:57.987Z,26.70
2019-03-23T11:58:26.476Z,37.43
2019-03-23T12:00:54.930Z,36.07
2019-03-23T12:03:23.457Z,34.83
2019-03-23T12:05:51.928Z,31.90
2019-03-23T12:08:20.415Z,32.17
2019-03-23T12:10:48.915Z,31.63
2019-03-23T12:13:17.426Z,31.87
2019-03-23T12:15:45.907Z,30.77
2019-03-23T12:18:14.396Z,32.33
2019-03-23T12:20:42.877Z,31.20
2019-03-23T12:23:11.351Z,27.07
2019-03-23T12:25:39.871Z,20.93
2019-03-23T12:28:08.331Z,28.30
2019-03-23T12:30:37.906Z,29.50
2019-03-23T12:33:06.419Z,21.87
2019-03-23T12:35:34.903Z,22.97
2019-03-23T12:38:03.387Z,22.40
2019-03-23T12:40:31.919Z,18.73
2019-03-23T12:43:00.393Z,22.23
2019-03-23T12:45:28.852Z,14.00
2019-03-23T12:47:57.399Z,19.03
2019-03-23T12:50:25.899Z,15.00
2019-03-23T12:52:54.368Z,15.03
2019-03-23T12:55:22.866Z,18.43
2019-03-23T12:57:51.366Z,17.67
2019-03-23T13:00:19.912Z,18.93
2019-03-23T13:02:48.464Z,20.20
2019-03-23T13:05:16.932Z,23.37
2019-03-23T13:07:45.395Z,19.10
2019-03-23T13:10:14.654Z,20.00
2019-03-23T13:12:43.127Z,20.70
2019-03-23T13:15:14.119Z,20.43
2019-03-23T13:17:42.663Z,20.77
2019-03-23T13:20:11.683Z,19.53
2019-03-23T13:22:40.303Z,22.10
2019-03-23T13:25:09.561Z,22.70
2019-03-23T13:27:38.037Z,18.47
2019-03-23T13:30:18.829Z,19.33
2019-03-23T13:32:48.595Z,20.33
2019-03-23T13:35:17.069Z,16.70
2019-03-23T13:37:45.663Z,13.63
2019-03-23T13:40:14.268Z,13.90
2019-03-23T13:42:42.817Z,11.80
2019-03-23T13:45:11.591Z,15.10
2019-03-23T13:47:40.530Z,14.90
2019-03-23T13:50:10.337Z,15.50
2019-03-23T13:52:39.422Z,16.53
2019-03-23T13:55:08.082Z,17.97
2019-03-23T13:57:36.580Z,16.40
2019-03-23T14:00:07.311Z,19.20
2019-03-23T14:02:35.779Z,18.03
2019-03-23T14:05:05.074Z,18.80
2019-03-23T14:07:33.582Z,17.13
2019-03-23T14:10:02.048Z,18.57
2019-03-23T14:12:30.524Z,17.33
2019-03-23T14:14:59.047Z,18.57
2019-03-23T14:17:27.523Z,22.10
2019-03-23T14:19:56.006Z,19.87
2019-03-23T14:22:24.507Z,18.27
2019-03-23T14:24:52.961Z,18.60
2019-03-23T14:27:21.441Z,16.97
2019-03-23T14:29:50.035Z,20.47
2019-03-23T14:32:18.498Z,17.30
2019-03-23T14:34:47.177Z,20.57
2019-03-23T14:37:15.692Z,22.67
2019-03-23T14:39:44.162Z,21.90
2019-03-23T14:42:12.627Z,21.83
2019-03-23T14:44:41.151Z,24.10
2019-03-23T14:47:09.615Z,22.43
2019-03-23T14:49:38.094Z,24.90
2019-03-23T14:52:06.604Z,21.10
2019-03-23T14:54:35.091Z,23.30
2019-03-23T14:57:03.577Z,22.67
2019-03-23T14:59:32.064Z,22.77
2019-03-23T15:02:00.543Z,22.90
2019-03-23T15:04:29.029Z,22.33
2019-03-23T15:06:57.552Z,22.40
2019-03-23T15:09:26.026Z,21.93
2019-03-23T15:11:54.509Z,25.20
2019-03-23T15:14:23.071Z,31.30
2019-03-23T15:16:51.526Z,23.20
2019-03-23T15:19:19.993Z,26.07
2019-03-23T15:21:48.499Z,28.30
2019-03-23T15:24:16.972Z,26.33
2019-03-23T15:26:45.449Z,31.20
2019-03-23T15:29:14.041Z,19.93
2019-03-23T15:31:42.501Z,21.50
2019-03-23T15:34:10.961Z,24.70
2019-03-23T15:36:40.741Z,25.10
2019-03-23T15:39:09.215Z,26.37
2019-03-23T15:41:37.675Z,26.57
2019-03-23T15:44:06.183Z,25.47
2019-03-23T15:46:34.655Z,28.47
2019-03-23T15:49:03.126Z,28.00
2019-03-23T15:51:31.637Z,27.17
2019-03-23T15:54:00.104Z,27.00
2019-03-23T15:56:28.577Z,32.07
2019-03-23T15:58:57.083Z,26.17
2019-03-23T16:01:25.545Z,27.33
2019-03-23T16:03:54.016Z,26.97
2019-03-23T16:06:22.684Z,28.60
2019-03-23T16:08:51.167Z,26.87
2019-03-23T16:11:19.708Z,24.60
2019-03-23T16:13:48.203Z,25.33
2019-03-23T16:16:16.676Z,23.13
2019-03-23T16:18:45.228Z,22.37
2019-03-23T16:21:13.731Z,22.07
2019-03-23T16:23:42.209Z,22.87
2019-03-23T16:26:10.687Z,21.47
2019-03-23T16:28:39.202Z,22.53
2019-03-23T16:31:07.683Z,21.20
2019-03-23T16:33:36.147Z,21.17
2019-03-23T16:36:04.636Z,20.50
2019-03-23T16:38:33.322Z,21.87
2019-03-23T16:41:01.783Z,21.27
2019-03-23T16:43:30.369Z,20.50
2019-03-23T16:45:58.847Z,24.10
2019-03-23T16:48:27.368Z,23.13
2019-03-23T16:50:55.847Z,22.77
2019-03-23T16:53:25.540Z,23.50
2019-03-23T16:55:53.984Z,23.63
2019-03-23T16:58:22.506Z,21.53
2019-03-23T17:00:50.991Z,22.80
2019-03-23T17:03:19.459Z,23.77
2019-03-23T17:05:47.980Z,21.87
2019-03-23T17:08:16.448Z,24.20
2019-03-23T17:10:45.005Z,24.70
2019-03-23T17:13:13.515Z,23.87
2019-03-23T17:15:42.016Z,25.20
2019-03-23T17:18:10.478Z,24.70
2019-03-23T17:20:38.977Z,24.87
2019-03-23T17:23:07.460Z,27.23
2019-03-23T17:25:37.651Z,24.70
2019-03-23T17:28:06.222Z,32.33
2019-03-23T17:30:34.688Z,26.73
2019-03-23T17:33:03.163Z,32.67
2019-03-23T17:35:31.693Z,34.77
2019-03-23T17:38:00.155Z,35.07
2019-03-23T17:40:29.667Z,35.00
2019-03-23T17:43:05.605Z,30.97
2019-03-23T17:45:31.363Z,32.77
2019-03-23T17:47:59.838Z,34.80
2019-03-23T17:50:28.701Z,35.57
2019-03-23T17:52:57.230Z,36.87
2019-03-23T17:55:25.839Z,35.37
2019-03-23T17:57:56.678Z,35.43
2019-03-23T18:00:31.893Z,36.03
2019-03-23T18:03:01.645Z,36.00
2019-03-23T18:05:31.489Z,35.43
2019-03-23T18:08:00.077Z,33.77
2019-03-23T18:10:29.820Z,31.90
2019-03-23T18:13:00.169Z,31.90
2019-03-23T18:15:30.322Z,31.50
2019-03-23T18:17:59.474Z,24.27
2019-03-23T18:20:30.682Z,29.03
2019-03-23T18:22:59.917Z,29.10
2019-03-23T18:25:28.564Z,28.53
2019-03-23T18:28:01.904Z,27.17
2019-03-23T18:30:38.940Z,26.60
2019-03-23T18:33:09.714Z,22.97
2019-03-23T18:35:40.070Z,21.63
2019-03-23T18:38:08.743Z,20.87
2019-03-23T18:40:37.347Z,22.20
2019-03-23T18:43:08.386Z,21.97
2019-03-23T18:45:37.199Z,21.60
2019-03-23T18:48:07.830Z,20.33
2019-03-23T18:50:39.040Z,18.93
2019-03-23T18:53:08.667Z,21.50
2019-03-23T18:55:40.224Z,17.77
2019-03-23T18:58:11.808Z,20.30
2019-03-23T19:00:44.896Z,15.47
2019-03-23T19:03:13.441Z,19.10
2019-03-23T19:05:41.980Z,17.67
2019-03-23T19:08:11.906Z,17.47
2019-03-23T19:10:40.542Z,18.70
2019-03-23T19:13:09.056Z,17.87
2019-03-23T19:15:37.630Z,15.83
2019-03-23T19:18:08.970Z,18.87
2019-03-23T19:20:37.515Z,19.03
2019-03-23T19:23:06.018Z,18.30
2019-03-23T19:25:34.645Z,21.30
2019-03-23T19:28:03.113Z,21.23
2019-03-23T19:30:31.619Z,27.50
2019-03-23T19:33:00.083Z,24.37
2019-03-23T19:35:28.582Z,26.50
2019-03-23T19:37:57.160Z,21.03
2019-03-23T19:40:25.637Z,21.80
2019-03-23T19:42:54.123Z,20.40
2019-03-23T19:45:22.898Z,22.27
2019-03-23T19:47:51.396Z,21.73
2019-03-23T19:50:19.968Z,18.17
2019-03-23T19:52:48.592Z,18.03
2019-03-23T19:55:17.650Z,20.13
2019-03-23T19:57:46.086Z,15.40
2019-03-23T20:00:14.842Z,14.10
2019-03-23T20:02:43.390Z,12.83
2019-03-23T20:05:11.904Z,15.77
2019-03-23T20:07:40.414Z,16.37
2019-03-23T20:10:09.920Z,16.93
2019-03-23T20:12:38.396Z,15.90
2019-03-23T20:15:08.257Z,11.73
2019-03-23T20:17:36.798Z,13.23
2019-03-23T20:20:07.662Z,8.07
2019-03-23T20:22:36.154Z,7.83
2019-03-23T20:25:06.271Z,7.43
2019-03-23T20:27:34.736Z,6.90
2019-03-23T20:30:04.198Z,8.00
2019-03-23T20:32:32.660Z,9.60
2019-03-23T20:35:01.105Z,8.03
2019-03-23T20:37:29.631Z,8.93
2019-03-23T20:39:58.083Z,7.87
2019-03-23T20:42:26.543Z,8.40
2019-03-23T20:44:55.030Z,7.50
2019-03-23T20:47:23.695Z,6.77
2019-03-23T20:49:53.523Z,10.70
2019-03-23T20:52:22.031Z,15.03
2019-03-23T20:54:50.493Z,19.17
2019-03-23T20:57:23.897Z,25.00
2019-03-23T20:59:49.230Z,18.53
2019-03-23T21:02:17.635Z,19.90
2019-03-23T21:04:46.106Z,14.30
2019-03-23T21:07:14.605Z,9.10
2019-03-23T21:09:43.068Z,10.07
2019-03-23T21:12:11.572Z,8.83
2019-03-23T21:14:40.074Z,9.87
2019-03-23T21:17:08.549Z,10.20
2019-03-23T21:19:37.009Z,9.50
2019-03-23T21:22:05.666Z,9.20
2019-03-23T21:24:34.112Z,9.00
2019-03-23T21:27:02.586Z,8.50
2019-03-23T21:29:31.073Z,9.20
2019-03-23T21:31:59.559Z,9.43
2019-03-23T21:34:28.044Z,8.20
2019-03-23T21:36:56.536Z,8.07
2019-03-23T21:39:25.001Z,7.67
2019-03-23T21:41:53.452Z,7.53
2019-03-23T21:44:30.706Z,7.10
2019-03-23T21:46:52.128Z,7.73
2019-03-23T21:49:20.855Z,6.93
2019-03-23T21:51:49.375Z,6.17
2019-03-23T21:54:17.845Z,5.40
2019-03-23T21:56:46.326Z,5.47
2019-03-23T21:59:14.813Z,7.27
2019-03-23T22:01:43.290Z,6.30
2019-03-23T22:04:11.749Z,6.47
2019-03-23T22:06:40.246Z,8.00
2019-03-23T22:09:08.735Z,6.50
2019-03-23T22:11:37.191Z,5.10
2019-03-23T22:14:05.787Z,5.43
2019-03-23T22:16:34.256Z,5.60
2019-03-23T22:19:02.731Z,6.53
2019-03-23T22:21:31.217Z,6.53
2019-03-23T22:23:59.686Z,4.53
2019-03-23T22:26:28.142Z,5.00
2019-03-23T22:28:56.645Z,6.50
2019-03-23T22:31:25.125Z,5.87
2019-03-23T22:33:53.580Z,6.00
2019-03-23T22:36:22.087Z,6.17
2019-03-23T22:38:50.546Z,5.23
2019-03-23T22:41:19.048Z,4.83
2019-03-23T22:43:47.536Z,9.30
2019-03-23T22:46:16.111Z,7.50
2019-03-23T22:48:44.603Z,8.20
2019-03-23T22:51:14.094Z,5.87
2019-03-23T22:53:42.566Z,5.30
2019-03-23T22:56:11.022Z,7.07
2019-03-23T22:58:39.510Z,6.10
2019-03-23T23:01:07.952Z,6.60
2019-03-23T23:03:36.498Z,5.63
2019-03-23T23:06:05.013Z,6.60
2019-03-23T23:08:33.478Z,6.53
2019-03-23T23:11:01.965Z,6.10
2019-03-23T23:13:30.459Z,5.27
2019-03-23T23:15:58.942Z,6.03
2019-03-23T23:18:27.397Z,4.90
2019-03-23T23:20:56.269Z,4.83
2019-03-23T23:23:24.725Z,5.60
2019-03-23T23:25:53.186Z,5.33
2019-03-23T23:28:21.686Z,6.90
2019-03-23T23:30:50.128Z,5.83
2019-03-23T23:33:18.590Z,5.57
2019-03-23T23:35:47.071Z,5.60
2019-03-23T23:38:15.522Z,5.63
2019-03-23T23:40:43.975Z,5.13
2019-03-23T23:43:12.506Z,5.37
2019-03-23T23:45:40.986Z,5.20
2019-03-23T23:48:09.452Z,5.60
2019-03-23T23:50:37.949Z,5.50
2019-03-23T23:53:07.374Z,5.67
2019-03-23T23:55:35.839Z,5.00
2019-03-23T23:58:04.410Z,5.87
